createdAt,value
2023-02-13T00:01:59.442Z,19.27
2023-02-13T00:04:02.236Z,19.47
2023-02-13T00:06:05.009Z,19.93
2023-02-13T00:08:09.062Z,19.20
2023-02-13T00:10:12.501Z,18.93
2023-02-13T00:12:15.273Z,18.33
2023-02-13T00:14:18.026Z,20.17
2023-02-13T00:16:20.767Z,19.10
2023-02-13T00:18:23.912Z,19.90
2023-02-13T00:20:26.843Z,19.83
2023-02-13T00:22:29.561Z,19.20
2023-02-13T00:24:35.983Z,18.23
2023-02-13T00:26:39.972Z,19.77
2023-02-13T00:28:42.854Z,18.93
2023-02-13T00:30:45.796Z,18.50
2023-02-13T00:32:48.602Z,18.87
2023-02-13T00:34:51.673Z,20.00
2023-02-13T00:36:54.411Z,18.93
2023-02-13T00:38:57.117Z,19.60
2023-02-13T00:41:01.120Z,18.30
2023-02-13T00:43:04.198Z,18.00
2023-02-13T00:45:07.092Z,18.20
2023-02-13T00:47:09.884Z,19.90
2023-02-13T00:49:12.956Z,18.70
2023-02-13T00:51:16.139Z,19.20
2023-02-13T00:53:18.914Z,19.40
2023-02-13T00:55:24.764Z,19.03
2023-02-13T00:57:29.281Z,18.40
2023-02-13T00:59:32.479Z,18.40
2023-02-13T01:01:35.238Z,19.57
2023-02-13T01:03:38.150Z,19.40
2023-02-13T01:05:40.927Z,19.30
2023-02-13T01:07:43.990Z,19.80
2023-02-13T01:09:46.722Z,18.87
2023-02-13T01:11:49.400Z,19.27
2023-02-13T01:14:03.330Z,19.30
2023-02-13T01:16:06.440Z,18.80
2023-02-13T01:18:13.604Z,18.40
2023-02-13T01:20:16.345Z,18.87
2023-02-13T01:22:24.547Z,19.40
2023-02-13T01:24:29.931Z,19.27
2023-02-13T01:26:32.694Z,19.60
2023-02-13T01:28:35.484Z,19.90
2023-02-13T01:30:40.093Z,19.00
2023-02-13T01:32:43.047Z,18.67
2023-02-13T01:34:45.786Z,19.03
2023-02-13T01:36:48.521Z,19.83
2023-02-13T01:38:54.006Z,21.23
2023-02-13T01:40:57.112Z,19.30
2023-02-13T01:43:00.651Z,19.53
2023-02-13T01:45:16.124Z,17.90
2023-02-13T01:47:25.517Z,18.60
2023-02-13T01:49:28.250Z,19.40
2023-02-13T01:51:32.210Z,19.60
2023-02-13T01:53:38.792Z,18.43
2023-02-13T01:55:44.638Z,20.13
2023-02-13T01:57:49.764Z,18.77
2023-02-13T01:59:54.594Z,19.83
2023-02-13T02:01:58.083Z,18.80
2023-02-13T02:04:07.028Z,21.03
2023-02-13T02:06:12.155Z,20.63
2023-02-13T02:08:14.871Z,19.00
2023-02-13T02:10:19.154Z,20.50
2023-02-13T02:12:25.023Z,20.50
2023-02-13T02:14:28.124Z,20.60
2023-02-13T02:16:30.916Z,19.37
2023-02-13T02:18:34.010Z,20.57
2023-02-13T02:21:00.506Z,19.83
2023-02-13T02:23:18.282Z,20.13
2023-02-13T02:25:36.175Z,20.83
2023-02-13T02:27:56.280Z,19.57
2023-02-13T02:30:21.465Z,20.90
2023-02-13T02:32:33.413Z,19.40
2023-02-13T02:34:39.361Z,20.00
2023-02-13T02:36:50.613Z,19.37
2023-02-13T02:39:03.224Z,21.00
2023-02-13T02:41:11.173Z,19.20
2023-02-13T02:43:22.539Z,21.00
2023-02-13T02:45:28.069Z,20.03
2023-02-13T02:47:45.110Z,20.63
2023-02-13T02:50:06.951Z,21.67
2023-02-13T02:52:12.209Z,21.17
2023-02-13T02:54:27.632Z,20.40
2023-02-13T02:56:34.533Z,20.80
2023-02-13T02:58:49.909Z,21.77
2023-02-13T03:01:04.182Z,19.97
2023-02-13T03:03:24.313Z,20.77
2023-02-13T03:05:39.767Z,21.13
2023-02-13T03:07:42.715Z,20.70
2023-02-13T03:10:00.789Z,20.03
2023-02-13T03:12:14.480Z,21.23
2023-02-13T03:14:20.506Z,20.00
2023-02-13T03:16:39.165Z,20.23
2023-02-13T03:18:55.218Z,20.33
2023-02-13T03:21:13.967Z,21.07
2023-02-13T03:23:18.150Z,19.53
2023-02-13T03:25:30.196Z,20.60
2023-02-13T03:27:48.256Z,21.40
2023-02-13T03:30:04.784Z,20.73
2023-02-13T03:32:10.710Z,19.97
2023-02-13T03:34:16.287Z,20.07
2023-02-13T03:36:33.835Z,21.33
2023-02-13T03:38:38.293Z,19.80
2023-02-13T03:41:05.032Z,21.47
2023-02-13T03:43:10.582Z,21.00
2023-02-13T03:45:25.194Z,20.57
2023-02-13T03:47:27.950Z,20.50
2023-02-13T03:49:45.252Z,20.90
2023-02-13T03:51:50.180Z,22.07
2023-02-13T03:53:57.770Z,20.77
2023-02-13T03:56:11.996Z,21.23
2023-02-13T03:58:26.554Z,21.83
2023-02-13T04:00:30.355Z,20.53
2023-02-13T04:02:34.435Z,20.77
2023-02-13T04:04:43.143Z,21.00
2023-02-13T04:06:48.723Z,20.80
2023-02-13T04:08:51.446Z,20.73
2023-02-13T04:10:56.090Z,21.10
2023-02-13T04:13:03.388Z,20.20
2023-02-13T04:15:09.636Z,20.47
2023-02-13T04:17:13.624Z,20.37
2023-02-13T04:19:16.354Z,19.43
2023-02-13T04:21:21.773Z,19.87
2023-02-13T04:23:24.496Z,20.50
2023-02-13T04:25:27.270Z,20.77
2023-02-13T04:27:30.068Z,21.70
2023-02-13T04:29:33.134Z,19.90
2023-02-13T04:31:36.017Z,18.87
2023-02-13T04:33:38.832Z,20.60
2023-02-13T04:35:41.649Z,21.80
2023-02-13T04:37:45.772Z,19.67
2023-02-13T04:39:48.500Z,19.17
2023-02-13T04:41:51.197Z,19.13
2023-02-13T04:43:53.953Z,20.50
2023-02-13T04:45:57.185Z,20.87
2023-02-13T04:47:59.940Z,20.00
2023-02-13T04:50:02.672Z,20.33
2023-02-13T04:52:06.137Z,21.27
2023-02-13T04:54:11.467Z,20.43
2023-02-13T04:56:14.242Z,19.57
2023-02-13T04:58:16.973Z,21.30
2023-02-13T05:00:20.591Z,18.93
2023-02-13T05:02:23.733Z,20.20
2023-02-13T05:04:26.520Z,20.10
2023-02-13T05:06:29.320Z,19.83
2023-02-13T05:08:32.102Z,19.40
2023-02-13T05:10:36.566Z,20.07
2023-02-13T05:12:39.437Z,19.10
2023-02-13T05:14:42.278Z,19.13
2023-02-13T05:16:45.355Z,19.10
2023-02-13T05:18:48.850Z,18.57
2023-02-13T05:21:05.599Z,18.60
2023-02-13T05:25:42.655Z,19.27
2023-02-13T05:27:45.400Z,18.40
2023-02-13T05:29:47.227Z,18.80
2023-02-13T05:31:50.303Z,17.13
2023-02-13T05:33:53.538Z,16.87
2023-02-13T05:35:56.270Z,17.70
2023-02-13T05:37:58.957Z,16.97
2023-02-13T05:40:02.032Z,18.57
2023-02-13T05:42:06.146Z,17.47
2023-02-13T05:44:08.861Z,16.57
2023-02-13T05:46:11.700Z,16.27
2023-02-13T05:48:14.776Z,17.40
2023-02-13T05:50:17.792Z,16.83
2023-02-13T05:52:20.614Z,15.80
2023-02-13T05:54:23.284Z,15.97
2023-02-13T05:56:26.308Z,16.50
2023-02-13T05:58:30.402Z,16.17
2023-02-13T06:00:33.080Z,15.37
2023-02-13T06:02:38.247Z,15.03
2023-02-13T06:04:41.407Z,15.40
2023-02-13T06:06:47.040Z,14.40
2023-02-13T06:08:49.885Z,14.30
2023-02-13T06:10:54.988Z,14.23
2023-02-13T06:12:59.220Z,14.27
2023-02-13T06:15:03.240Z,15.67
2023-02-13T06:17:05.899Z,14.10
2023-02-13T06:19:08.741Z,13.87
2023-02-13T06:21:11.995Z,13.70
2023-02-13T06:23:14.735Z,13.70
2023-02-13T06:25:17.586Z,13.33
2023-02-13T06:27:20.335Z,13.43
2023-02-13T06:29:23.528Z,13.50
2023-02-13T06:31:27.713Z,12.53
2023-02-13T06:33:30.521Z,12.93
2023-02-13T06:35:33.292Z,12.03
2023-02-13T06:37:36.482Z,12.77
2023-02-13T06:39:39.120Z,12.47
2023-02-13T06:41:41.846Z,11.60
2023-02-13T06:43:44.590Z,12.07
2023-02-13T06:45:48.845Z,11.83
2023-02-13T06:47:52.890Z,11.33
2023-02-13T06:49:55.616Z,11.60
2023-02-13T06:51:58.287Z,11.80
2023-02-13T06:54:01.305Z,11.87
2023-02-13T06:56:05.146Z,11.73
2023-02-13T06:58:07.878Z,10.60
2023-02-13T07:00:13.264Z,10.80
2023-02-13T07:02:17.342Z,11.43
2023-02-13T07:04:21.308Z,11.43
2023-02-13T07:06:24.014Z,11.03
2023-02-13T07:08:26.784Z,10.60
2023-02-13T07:10:29.533Z,11.57
2023-02-13T07:12:33.860Z,11.10
2023-02-13T07:14:36.559Z,10.40
2023-02-13T07:16:39.639Z,10.73
2023-02-13T07:18:42.401Z,10.50
2023-02-13T07:20:46.402Z,10.03
2023-02-13T07:22:49.094Z,10.80
2023-02-13T07:24:51.853Z,10.00
2023-02-13T07:26:54.576Z,10.43
2023-02-13T07:29:10.549Z,10.40
2023-02-13T07:31:14.411Z,10.70
2023-02-13T07:33:17.187Z,10.80
2023-02-13T07:35:19.913Z,10.47
2023-02-13T07:37:24.277Z,10.97
2023-02-13T07:39:26.978Z,11.43
2023-02-13T07:41:29.652Z,12.43
2023-02-13T07:43:32.428Z,12.73
2023-02-13T07:45:35.478Z,13.80
2023-02-13T07:47:38.194Z,13.70
2023-02-13T07:49:40.924Z,13.13
2023-02-13T07:51:43.707Z,14.40
2023-02-13T07:53:48.134Z,14.20
2023-02-13T07:55:50.877Z,15.10
2023-02-13T07:57:53.625Z,15.00
2023-02-13T07:59:56.328Z,16.73
2023-02-13T08:01:59.417Z,15.87
2023-02-13T08:04:02.199Z,16.63
2023-02-13T08:06:05.329Z,15.70
2023-02-13T08:08:08.493Z,15.57
2023-02-13T08:10:25.344Z,17.67
2023-02-13T08:12:28.075Z,17.30
2023-02-13T08:14:30.806Z,17.43
2023-02-13T08:16:33.946Z,18.60
2023-02-13T08:18:36.687Z,16.73
2023-02-13T08:20:39.452Z,17.13
2023-02-13T08:22:42.247Z,16.93
2023-02-13T08:24:44.947Z,17.33
2023-02-13T08:26:49.053Z,16.63
2023-02-13T08:28:51.765Z,15.90
2023-02-13T08:30:54.776Z,16.53
2023-02-13T08:32:57.620Z,15.33
2023-02-13T08:35:00.347Z,16.70
2023-02-13T08:37:03.564Z,15.57
2023-02-13T08:39:06.374Z,16.03
2023-02-13T08:41:09.183Z,16.23
2023-02-13T08:43:13.176Z,16.07
2023-02-13T08:45:16.808Z,14.37
2023-02-13T08:47:19.734Z,14.10
2023-02-13T08:49:23.474Z,15.30
2023-02-13T08:51:26.215Z,16.03
2023-02-13T08:53:29.237Z,14.60
2023-02-13T08:55:32.172Z,13.77
2023-02-13T08:57:34.916Z,15.50
2023-02-13T08:59:39.374Z,14.30
2023-02-13T09:01:42.223Z,14.27
2023-02-13T09:03:45.294Z,14.20
2023-02-13T09:05:48.578Z,14.20
2023-02-13T09:07:51.573Z,14.90
2023-02-13T09:09:54.287Z,14.03
2023-02-13T09:11:57.910Z,13.57
2023-02-13T09:14:00.638Z,14.97
2023-02-13T09:16:05.956Z,13.50
2023-02-13T09:18:08.673Z,13.87
2023-02-13T09:20:13.901Z,13.80
2023-02-13T09:22:17.305Z,13.33
2023-02-13T09:24:20.030Z,13.53
2023-02-13T09:26:22.713Z,14.07
2023-02-13T09:28:25.479Z,12.53
2023-02-13T09:30:28.240Z,14.30
2023-02-13T09:32:34.098Z,12.43
2023-02-13T09:34:36.846Z,13.87
2023-02-13T09:36:39.516Z,14.33
2023-02-13T09:38:43.989Z,15.20
2023-02-13T09:40:49.324Z,15.43
2023-02-13T09:42:52.004Z,15.10
2023-02-13T09:44:55.398Z,15.60
2023-02-13T09:46:58.265Z,15.70
2023-02-13T09:49:04.090Z,16.77
2023-02-13T09:51:07.029Z,15.67
2023-02-13T09:53:11.608Z,16.13
2023-02-13T09:55:16.232Z,16.27
2023-02-13T09:57:24.022Z,17.73
2023-02-13T09:59:35.255Z,18.10
2023-02-13T10:01:39.264Z,17.60
2023-02-13T10:03:43.929Z,18.30
2023-02-13T10:05:57.296Z,17.83
2023-02-13T10:08:02.605Z,18.90
2023-02-13T10:10:09.211Z,18.70
2023-02-13T10:12:21.440Z,18.50
2023-02-13T10:14:25.892Z,17.90
2023-02-13T10:16:30.067Z,19.63
2023-02-13T10:18:38.323Z,19.13
2023-02-13T10:20:43.313Z,18.70
2023-02-13T10:22:48.674Z,20.37
2023-02-13T10:24:52.885Z,19.63
2023-02-13T10:26:55.578Z,18.13
2023-02-13T10:29:12.064Z,20.57
2023-02-13T10:31:16.627Z,20.40
2023-02-13T10:33:21.015Z,19.23
2023-02-13T10:35:25.961Z,19.83
2023-02-13T10:37:28.945Z,19.20
2023-02-13T10:39:32.986Z,21.00
2023-02-13T10:41:42.944Z,20.43
2023-02-13T10:43:50.548Z,20.67
2023-02-13T10:45:59.068Z,20.40
2023-02-13T10:48:08.110Z,20.07
2023-02-13T10:50:17.173Z,19.90
2023-02-13T10:52:26.427Z,20.70
2023-02-13T10:54:41.047Z,18.57
2023-02-13T10:56:44.234Z,19.57
2023-02-13T10:58:59.632Z,19.40
2023-02-13T11:01:04.134Z,19.90
2023-02-13T11:03:06.866Z,20.63
2023-02-13T11:05:19.589Z,18.90
2023-02-13T11:07:24.645Z,19.80
2023-02-13T11:09:27.447Z,21.37
2023-02-13T11:11:32.872Z,19.13
2023-02-13T11:13:36.088Z,20.00
2023-02-13T11:15:38.883Z,19.87
2023-02-13T11:17:43.076Z,18.77
2023-02-13T11:19:51.902Z,19.63
2023-02-13T11:21:59.186Z,18.80
2023-02-13T11:24:01.995Z,18.80
2023-02-13T11:26:16.382Z,18.73
2023-02-13T11:28:21.611Z,18.53
2023-02-13T11:30:32.889Z,20.67
2023-02-13T11:32:35.977Z,18.60
2023-02-13T11:34:39.276Z,19.00
2023-02-13T11:36:42.475Z,18.20
2023-02-13T11:38:45.264Z,19.10
2023-02-13T11:40:48.644Z,18.83
2023-02-13T11:42:51.801Z,19.50
2023-02-13T11:44:56.937Z,19.80
2023-02-13T11:47:00.470Z,19.40
2023-02-13T11:49:04.850Z,19.30
2023-02-13T11:51:07.836Z,18.23
2023-02-13T11:53:19.852Z,20.40
2023-02-13T11:55:32.242Z,19.80
2023-02-13T11:57:35.666Z,20.93
2023-02-13T11:59:44.454Z,20.07
2023-02-13T12:01:50.338Z,18.63
2023-02-13T12:03:59.593Z,18.80
2023-02-13T12:06:04.670Z,19.77
2023-02-13T12:08:09.851Z,20.10
2023-02-13T12:10:19.237Z,20.37
2023-02-13T12:12:24.310Z,19.60
2023-02-13T12:14:28.188Z,20.53
2023-02-13T12:16:34.981Z,21.17
2023-02-13T12:18:40.989Z,19.90
2023-02-13T12:20:46.977Z,20.23
2023-02-13T12:22:57.856Z,21.60
2023-02-13T12:25:22.661Z,20.93
2023-02-13T12:27:29.248Z,22.23
2023-02-13T12:29:45.988Z,22.83
2023-02-13T12:31:58.444Z,22.67
2023-02-13T12:34:18.700Z,21.87
2023-02-13T12:36:26.292Z,23.40
2023-02-13T12:38:36.645Z,23.20
2023-02-13T12:40:46.356Z,23.93
2023-02-13T12:42:51.402Z,23.77
2023-02-13T12:45:04.013Z,23.07
2023-02-13T12:47:11.895Z,23.70
2023-02-13T12:49:24.957Z,24.63
2023-02-13T12:51:36.019Z,25.03
2023-02-13T12:53:50.316Z,23.10
2023-02-13T12:56:01.475Z,24.70
2023-02-13T12:58:13.820Z,24.77
2023-02-13T13:00:23.632Z,23.97
2023-02-13T13:02:45.658Z,23.63
2023-02-13T13:04:54.547Z,23.63
2023-02-13T13:07:09.832Z,22.67
2023-02-13T13:09:27.343Z,21.80
2023-02-13T13:11:49.829Z,22.97
2023-02-13T13:13:56.496Z,22.43
2023-02-13T13:16:02.734Z,21.63
2023-02-13T13:18:11.835Z,22.40
2023-02-13T13:20:32.276Z,22.07
2023-02-13T13:22:36.524Z,22.07
2023-02-13T13:24:44.572Z,23.30
2023-02-13T13:26:49.540Z,20.90
2023-02-13T13:28:53.579Z,21.70
2023-02-13T13:30:56.816Z,21.47
2023-02-13T13:33:02.408Z,20.43
2023-02-13T13:35:05.442Z,22.40
2023-02-13T13:37:14.145Z,20.87
2023-02-13T13:39:23.158Z,20.50
2023-02-13T13:41:31.507Z,20.97
2023-02-13T13:43:36.331Z,19.70
2023-02-13T13:45:42.076Z,19.73
2023-02-13T13:47:50.263Z,18.83
2023-02-13T13:49:53.956Z,18.90
2023-02-13T13:52:19.840Z,18.70
2023-02-13T13:54:26.858Z,18.80
2023-02-13T13:56:34.907Z,20.23
2023-02-13T13:58:40.018Z,20.30
2023-02-13T14:00:43.220Z,20.90
2023-02-13T14:02:47.806Z,17.60
2023-02-13T14:05:02.298Z,19.63
2023-02-13T14:07:22.295Z,18.93
2023-02-13T14:09:39.305Z,18.93
2023-02-13T14:11:46.553Z,18.90
2023-02-13T14:13:50.344Z,19.07
2023-02-13T14:15:55.110Z,17.87
2023-02-13T14:17:58.694Z,18.53
2023-02-13T14:20:01.400Z,18.10
2023-02-13T14:22:35.365Z,18.07
2023-02-13T14:24:38.094Z,18.13
2023-02-13T14:26:41.106Z,18.63
2023-02-13T14:28:44.563Z,18.80
2023-02-13T14:30:47.737Z,18.80
2023-02-13T14:32:50.518Z,18.43
2023-02-13T14:34:57.005Z,19.67
2023-02-13T14:37:07.817Z,18.90
2023-02-13T14:39:20.362Z,19.53
2023-02-13T14:41:43.221Z,17.53
2023-02-13T14:43:51.011Z,19.13
2023-02-13T14:45:55.847Z,18.90
2023-02-13T14:47:59.018Z,20.00
2023-02-13T14:50:02.579Z,19.03
2023-02-13T14:55:29.610Z,18.00
2023-02-13T14:57:34.414Z,17.90
2023-02-13T14:59:37.837Z,19.13
2023-02-13T15:01:45.250Z,21.03
2023-02-13T15:03:49.233Z,20.03
2023-02-13T15:05:52.664Z,20.80
2023-02-13T15:07:58.773Z,19.43
2023-02-13T15:10:02.388Z,17.57
2023-02-13T15:12:21.526Z,20.73
2023-02-13T15:14:26.655Z,20.93
2023-02-13T15:16:29.391Z,19.87
2023-02-13T15:18:34.870Z,21.97
2023-02-13T15:20:39.029Z,21.00
2023-02-13T15:22:43.040Z,19.80
2023-02-13T15:24:47.338Z,21.90
2023-02-13T15:26:52.074Z,19.40
2023-02-13T15:29:01.681Z,21.30
2023-02-13T15:31:05.801Z,20.33
2023-02-13T15:33:17.322Z,22.07
2023-02-13T15:35:23.488Z,21.60
2023-02-13T15:37:28.648Z,22.73
2023-02-13T15:39:32.171Z,25.07
2023-02-13T15:41:35.685Z,25.87
2023-02-13T15:43:39.430Z,27.37
2023-02-13T15:45:49.731Z,26.03
2023-02-13T15:47:52.619Z,24.00
2023-02-13T15:49:55.311Z,21.50
2023-02-13T15:52:07.143Z,23.70
2023-02-13T15:54:23.482Z,23.30
2023-02-13T15:56:32.347Z,23.10
2023-02-13T15:58:35.663Z,23.90
2023-02-13T16:00:40.432Z,24.30
2023-02-13T16:02:48.555Z,23.77
2023-02-13T16:04:52.638Z,23.07
2023-02-13T16:06:56.249Z,23.57
2023-02-13T16:08:59.370Z,24.57
2023-02-13T16:11:34.667Z,25.60
2023-02-13T16:13:37.379Z,24.63
2023-02-13T16:15:40.139Z,23.23
2023-02-13T16:17:45.249Z,24.67
2023-02-13T16:19:53.593Z,24.97
2023-02-13T16:21:56.754Z,24.70
2023-02-13T16:24:01.697Z,24.23
2023-02-13T16:26:05.248Z,24.73
2023-02-13T16:28:16.033Z,25.33
2023-02-13T16:30:32.030Z,24.13
2023-02-13T16:32:38.223Z,24.10
2023-02-13T16:34:42.228Z,23.03
2023-02-13T16:36:44.945Z,24.07
2023-02-13T16:38:48.227Z,24.13
2023-02-13T16:40:50.982Z,23.30
2023-02-13T16:42:53.711Z,24.07
2023-02-13T16:45:22.223Z,22.83
2023-02-13T16:47:25.211Z,23.97
2023-02-13T16:49:29.380Z,23.23
2023-02-13T16:51:35.903Z,23.50
2023-02-13T16:53:38.964Z,23.37
2023-02-13T16:55:41.838Z,23.87
2023-02-13T16:57:45.350Z,25.80
2023-02-13T16:59:54.363Z,23.73
2023-02-13T17:02:11.390Z,24.03
2023-02-13T17:04:16.746Z,23.97
2023-02-13T17:06:19.464Z,23.43
2023-02-13T17:08:23.793Z,23.83
2023-02-13T17:10:27.457Z,23.80
2023-02-13T17:12:31.177Z,24.40
2023-02-13T17:14:34.182Z,24.03
2023-02-13T17:16:36.992Z,23.90
2023-02-13T17:18:39.819Z,24.40
2023-02-13T17:20:43.338Z,24.73
2023-02-13T17:22:46.895Z,25.70
2023-02-13T17:24:50.957Z,25.10
2023-02-13T17:26:53.746Z,24.37
2023-02-13T17:28:56.833Z,24.70
2023-02-13T17:31:00.021Z,22.80
2023-02-13T17:33:07.133Z,24.93
2023-02-13T17:35:11.682Z,24.63
2023-02-13T17:37:18.192Z,23.60
2023-02-13T17:39:20.988Z,25.17
2023-02-13T17:41:25.183Z,25.20
2023-02-13T17:43:28.940Z,24.03
2023-02-13T17:45:33.997Z,24.97
2023-02-13T17:47:36.789Z,23.90
2023-02-13T17:49:39.560Z,25.20
2023-02-13T17:51:44.398Z,23.77
2023-02-13T17:53:50.192Z,24.90
2023-02-13T17:55:53.135Z,25.67
2023-02-13T17:57:58.013Z,26.20
2023-02-13T18:00:04.532Z,26.50
2023-02-13T18:02:12.210Z,25.47
2023-02-13T18:04:14.950Z,26.90
2023-02-13T18:06:17.751Z,26.93
2023-02-13T18:08:20.476Z,26.40
2023-02-13T18:10:25.276Z,24.47
2023-02-13T18:12:28.043Z,26.80
2023-02-13T18:14:32.732Z,27.57
2023-02-13T18:16:35.668Z,26.90
2023-02-13T18:18:38.724Z,27.40
2023-02-13T18:20:41.461Z,26.50
2023-02-13T18:22:44.198Z,26.47
2023-02-13T18:24:46.983Z,26.87
2023-02-13T18:26:51.215Z,27.50
2023-02-13T18:28:54.138Z,27.13
2023-02-13T18:30:58.781Z,25.10
2023-02-13T18:33:05.007Z,26.20
2023-02-13T18:35:08.826Z,26.20
2023-02-13T18:37:12.741Z,26.13
2023-02-13T18:39:16.266Z,26.03
2023-02-13T18:41:19.106Z,26.37
2023-02-13T18:43:22.379Z,26.77
2023-02-13T18:45:25.587Z,26.03
2023-02-13T18:47:29.646Z,25.90
2023-02-13T18:49:32.392Z,26.43
2023-02-13T18:51:35.611Z,27.90
2023-02-13T18:53:38.493Z,26.03
2023-02-13T18:55:41.459Z,25.23
2023-02-13T18:57:45.505Z,26.30
2023-02-13T18:59:48.772Z,26.13
2023-02-13T19:01:51.777Z,25.07
2023-02-13T19:03:55.874Z,24.00
2023-02-13T19:05:58.896Z,26.03
2023-02-13T19:08:02.145Z,24.93
2023-02-13T19:10:05.061Z,26.07
2023-02-13T19:12:10.853Z,25.37
2023-02-13T19:14:14.159Z,24.93
2023-02-13T19:16:19.253Z,23.40
2023-02-13T19:18:22.278Z,24.47
2023-02-13T19:20:26.264Z,24.67
2023-02-13T19:22:29.020Z,25.30
2023-02-13T19:24:32.953Z,26.30
2023-02-13T19:26:36.006Z,26.30
2023-02-13T19:28:38.794Z,26.47
2023-02-13T19:30:41.580Z,25.27
2023-02-13T19:32:44.592Z,26.50
2023-02-13T19:34:47.671Z,27.10
2023-02-13T19:36:51.678Z,25.70
2023-02-13T19:38:55.849Z,26.83
2023-02-13T19:41:04.451Z,26.40
2023-02-13T19:43:11.712Z,26.80
2023-02-13T19:45:14.563Z,27.87
2023-02-13T19:47:17.413Z,28.60
2023-02-13T19:49:22.447Z,26.70
2023-02-13T19:51:27.683Z,27.40
2023-02-13T19:53:31.733Z,28.27
2023-02-13T19:55:34.508Z,25.80
2023-02-13T19:57:37.743Z,27.30
2023-02-13T19:59:40.426Z,27.93
2023-02-13T20:01:43.451Z,26.77
2023-02-13T20:03:46.747Z,29.00
2023-02-13T20:05:50.660Z,26.80
2023-02-13T20:07:53.551Z,28.20
2023-02-13T20:09:57.639Z,26.60
2023-02-13T20:12:00.794Z,28.60
2023-02-13T20:14:11.409Z,26.90
2023-02-13T20:16:15.071Z,25.77
2023-02-13T20:18:19.610Z,27.83
2023-02-13T20:20:22.655Z,27.00
2023-02-13T20:22:25.760Z,27.00
2023-02-13T20:24:28.550Z,25.80
2023-02-13T20:26:33.201Z,26.70
2023-02-13T20:28:36.021Z,26.90
2023-02-13T20:30:41.062Z,25.20
2023-02-13T20:32:44.028Z,24.70
2023-02-13T20:34:59.127Z,26.27
2023-02-13T20:37:02.564Z,23.70
2023-02-13T20:39:06.435Z,25.73
2023-02-13T20:41:10.362Z,24.73
2023-02-13T20:43:14.380Z,25.27
2023-02-13T20:45:17.606Z,22.60
2023-02-13T20:47:20.732Z,23.83
2023-02-13T20:49:23.530Z,23.60
2023-02-13T20:51:26.247Z,23.00
2023-02-13T20:53:29.815Z,22.70
2023-02-13T20:55:34.799Z,22.97
2023-02-13T20:57:37.559Z,22.90
2023-02-13T20:59:41.701Z,22.90
2023-02-13T21:01:45.644Z,22.57
2023-02-13T21:03:53.417Z,21.60
2023-02-13T21:05:56.141Z,21.27
2023-02-13T21:07:58.937Z,22.10
2023-02-13T21:10:01.684Z,23.13
2023-02-13T21:12:05.041Z,22.17
2023-02-13T21:14:07.766Z,22.10
2023-02-13T21:16:13.394Z,22.43
2023-02-13T21:18:21.028Z,21.37
2023-02-13T21:20:25.471Z,21.53
2023-02-13T21:22:28.202Z,21.43
2023-02-13T21:24:30.940Z,22.10
2023-02-13T21:26:33.806Z,21.37
2023-02-13T21:28:36.954Z,21.23
2023-02-13T21:30:39.796Z,21.40
2023-02-13T21:32:43.905Z,20.70
2023-02-13T21:34:46.699Z,21.47
2023-02-13T21:36:50.932Z,20.70
2023-02-13T21:38:53.646Z,19.77
2023-02-13T21:40:57.112Z,19.93
2023-02-13T21:42:59.955Z,21.50
2023-02-13T21:45:03.186Z,20.67
2023-02-13T21:47:07.181Z,20.40
2023-02-13T21:49:13.517Z,20.73
2023-02-13T21:51:17.094Z,21.03
2023-02-13T21:53:20.160Z,19.23
2023-02-13T21:55:22.850Z,19.50
2023-02-13T21:57:25.630Z,20.63
2023-02-13T21:59:28.968Z,20.33
2023-02-13T22:01:33.300Z,20.00
2023-02-13T22:03:36.293Z,19.47
2023-02-13T22:05:43.608Z,19.37
2023-02-13T22:07:57.673Z,19.33
2023-02-13T22:10:00.386Z,20.40
2023-02-13T22:12:04.135Z,19.53
2023-02-13T22:14:08.044Z,19.43
2023-02-13T22:16:11.706Z,19.27
2023-02-13T22:18:15.930Z,18.37
2023-02-13T22:20:18.856Z,18.50
2023-02-13T22:22:22.845Z,18.30
2023-02-13T22:24:27.721Z,19.17
2023-02-13T22:26:31.530Z,18.00
2023-02-13T22:28:34.260Z,19.00
2023-02-13T22:30:37.565Z,17.77
2023-02-13T22:32:40.793Z,16.90
2023-02-13T22:34:43.512Z,18.03
2023-02-13T22:36:46.278Z,17.87
2023-02-13T22:38:53.492Z,17.97
2023-02-13T22:40:56.978Z,18.20
2023-02-13T22:43:00.362Z,18.80
2023-02-13T22:45:03.150Z,16.57
2023-02-13T22:47:07.257Z,18.10
2023-02-13T22:49:10.660Z,17.53
2023-02-13T22:51:14.853Z,18.03
2023-02-13T22:53:17.988Z,18.03
2023-02-13T22:55:22.085Z,17.87
2023-02-13T22:57:25.655Z,16.97
2023-02-13T22:59:28.552Z,17.50
2023-02-13T23:01:31.428Z,17.33
2023-02-13T23:03:34.192Z,16.90
2023-02-13T23:05:39.844Z,17.27
2023-02-13T23:07:42.607Z,15.43
2023-02-13T23:09:45.427Z,18.00
2023-02-13T23:12:03.739Z,16.43
2023-02-13T23:14:06.491Z,16.03
2023-02-13T23:16:13.364Z,15.90
2023-02-13T23:18:15.175Z,17.23
2023-02-13T23:20:18.594Z,16.87
2023-02-13T23:22:21.320Z,16.03
2023-02-13T23:24:24.077Z,15.03
2023-02-13T23:26:26.830Z,15.37
2023-02-13T23:28:31.147Z,16.73
2023-02-13T23:30:33.857Z,17.07
2023-02-13T23:32:36.646Z,15.17
2023-02-13T23:34:39.390Z,14.57
2023-02-13T23:36:42.628Z,15.77
2023-02-13T23:38:46.555Z,16.23
2023-02-13T23:40:49.245Z,14.03
2023-02-13T23:42:51.906Z,14.80
2023-02-13T23:44:56.275Z,15.10
2023-02-13T23:46:59.039Z,15.20
2023-02-13T23:49:01.740Z,13.83
2023-02-13T23:51:04.626Z,14.17
2023-02-13T23:53:07.720Z,15.30
2023-02-13T23:55:10.494Z,13.80
2023-02-13T23:57:13.579Z,14.30
2023-02-13T23:59:16.798Z,14.30
